Skip to main content.

Nearby METAR Reports

 

KJYR - York, Nebraska, USA
Distance from station: NW 27mi, 43km
Updated: Tue, 23-Apr-2019 9:35am CDT
Clear
Clear
 Wind from calm
Wind: Calm
Temperature: 48°F , 9°C
Dew Point: 41°F , 5°C
Humidity: 76%
Barometer: 30.17 inHg , 1021.7 hPa
Clouds: Clear
Visibility: 10 miles , 16 km
2019/04/23 14:35 KJYR 231435Z AUTO 00000KT 10SM CLR 09/05 A3017 RMK AO2
KLNK - Lincoln, Nebraska, USA
Distance from station: ENE 27mi, 44km
Updated: Tue, 23-Apr-2019 8:54am CDT
Clear
Clear
 Wind from NNE
Wind: NNE 10 mph , 17 km/h
Temperature: 48°F , 9°C
Wind Chill: 44°F , 7°C
Dew Point: 43°F , 6°C
Humidity: 82%
Barometer: 30.17 inHg , 1021.7 hPa
Clouds: Clear
Visibility: 10 miles , 16 km
2019/04/23 13:54 KLNK 231354Z 03009KT 10SM CLR 09/06 A3017 RMK AO2 SLP218 T00890056
 
KBIE - Beatrice Municip, Nebraska, USA
Distance from station: SE 36mi, 58km
Updated: Tue, 23-Apr-2019 9:35am CDT
Overcast
Overcast
 Wind from NNE
Wind: NNE 12 mph , 19 km/h
Temperature: 48°F , 9°C
Wind Chill: 43°F , 6°C
Dew Point: 43°F , 6°C
Humidity: 82%
Barometer: 30.15 inHg , 1021 hPa
Clouds: Overcast
Visibility: 10 miles , 16 km
Cloud details: Overcast 1200 ft
2019/04/23 14:35 KBIE 231435Z AUTO 03010KT 10SM OVC012 09/06 A3015 RMK AO2 T00940063
KHJH - Hebron Muni, Nebraska, USA
Distance from station: SSW 40mi, 64km
Updated: Tue, 23-Apr-2019 9:35am CDT
Clear
Clear
 Wind from NNE
Wind: NNE 9 mph , 15 km/h
Temperature: 50°F , 10°C
Wind Chill: 46°F , 8°C
Dew Point: 43°F , 6°C
Humidity: 76%
Barometer: 30.15 inHg , 1021 hPa
Clouds: Clear
Visibility: 10 miles , 16 km
2019/04/23 14:35 KHJH 231435Z AUTO 02008KT 10SM CLR 10/06 A3015 RMK AO2 T00980055
 
KAUH - Aurora, Nebraska, USA
Distance from station: WNW 44mi, 70km
Updated: Tue, 23-Apr-2019 9:35am CDT
Clear
Clear
 Wind from N
Wind: N 13 mph , 20 km/h
Temperature: 50°F , 10°C
Wind Chill: 45°F , 7°C
Dew Point: 39°F , 4°C
Humidity: 67%
Barometer: 30.17 inHg , 1021.7 hPa
Clouds: Clear
Visibility: 10 miles , 16 km
2019/04/23 14:35 KAUH 231435Z AUTO 01011KT 10SM CLR 10/04 A3017 RMK AO2 T01000041
KAHQ - Wahoo, Nebraska, USA
Distance from station: NE 51mi, 82km
Updated: Tue, 23-Apr-2019 9:35am CDT
Clear
Clear
 Wind from NNE
Wind: NNE 13 mph , 20 km/h, Gust: 17 mph , 28 km/h
Temperature: 50°F , 10°C
Wind Chill: 45°F , 7°C
Dew Point: 43°F , 6°C
Humidity: 76%
Barometer: 30.16 inHg , 1021.3 hPa
Clouds: Clear
Visibility: 10 miles , 16 km
2019/04/23 14:35 KAHQ 231435Z AUTO 02011G15KT 10SM CLR 10/06 A3016 RMK AO2 T00960060
 
KOLU - Columbus Muni, Nebraska, USA
Distance from station: N 55mi, 88km
Updated: Tue, 23-Apr-2019 9:21am CDT
Few Clouds
Few Clouds
 Wind from N
Wind: N 9 mph , 15 km/h
Temperature: 48°F , 9°C
Wind Chill: 44°F , 7°C
Dew Point: 43°F , 6°C
Humidity: 82%
Barometer: 30.19 inHg , 1022.4 hPa
Clouds: Few Clouds
Visibility: 10 miles , 16 km
Cloud details: Few Clouds 200 ft
2019/04/23 14:21 KOLU 231421Z AUTO 35008KT 10SM FEW002 09/06 A3019 RMK AO2
KGRI - Grand Island, Nebraska, USA
Distance from station: WNW 61mi, 99km
Updated: Tue, 23-Apr-2019 8:53am CDT
Clear
Clear
 Wind from N
Wind: N 8 mph , 13 km/h
Temperature: 48°F , 9°C
Wind Chill: 44°F , 7°C
Dew Point: 39°F , 4°C
Humidity: 71%
Barometer: 30.19 inHg , 1022.4 hPa
Clouds: Clear
Visibility: 10 miles , 16 km
2019/04/23 13:53 KGRI 231353Z 36007KT 10SM CLR 09/04 A3019 RMK AO2 SLP231 T00890039
 
KHSI - Hastings, Nebraska, USA
Distance from station: W 64mi, 103km
Updated: Tue, 23-Apr-2019 8:53am CDT
Clear
Clear
 Wind from N
Wind: N 12 mph , 19 km/h
Temperature: 46°F , 8°C
Wind Chill: 40°F , 4°C
Dew Point: 39°F , 4°C
Humidity: 76%
Barometer: 30.18 inHg , 1022 hPa
Clouds: Clear
Visibility: 10 miles , 16 km
2019/04/23 13:53 KHSI 231353Z AUTO 01010KT 10SM CLR 08/04 A3018 RMK AO2 SLP222 T00830044
KFET - Fremont Muni Arp, Nebraska, USA
Distance from station: NNE 66mi, 106km
Updated: Tue, 23-Apr-2019 9:35am CDT
Clear
Clear
 Wind from N
Wind: N 9 mph , 15 km/h
Temperature: 50°F , 10°C
Wind Chill: 46°F , 8°C
Dew Point: 41°F , 5°C
Humidity: 71%
Barometer: 30.17 inHg , 1021.7 hPa
Clouds: Clear
Visibility: 10 miles , 16 km
2019/04/23 14:35 KFET 231435Z AUTO 01008KT 10SM CLR 10/05 A3017 RMK AO2 T01010054
 
KMLE - Omaha/Millard, Nebraska, USA
Distance from station: NE 69mi, 110km
Updated: Tue, 23-Apr-2019 9:35am CDT
Clear
Clear
 Wind from NNE
Wind: NNE 7 mph , 11 km/h
Temperature: 52°F , 11°C
Dew Point: 43°F , 6°C
Humidity: 72%
Barometer: 30.15 inHg , 1021 hPa
Clouds: Clear
Visibility: 10 miles , 16 km
2019/04/23 14:35 KMLE 231435Z AUTO 03006KT 10SM CLR 11/06 A3015 RMK AO2 T01090057
KPMV - Plattsmouth Muni, Nebraska, USA
Distance from station: ENE 71mi, 114km
Updated: Tue, 23-Apr-2019 9:35am CDT
Mostly Cloudy
Mostly Cloudy
 Wind from N
Wind: N 8 mph , 13 km/h
Temperature: 48°F , 9°C
Wind Chill: 44°F , 7°C
Dew Point: 43°F , 6°C
Humidity: 82%
Barometer: 30.14 inHg , 1020.7 hPa
Clouds: Mostly Cloudy
Visibility: 10 miles , 16 km
Cloud details: Mostly Cloudy 1200 ft
2019/04/23 14:35 KPMV 231435Z AUTO 36007KT 10SM BKN012 09/06 A3014 RMK AO2 T00930061
 
KAFK - Nebraska City, Nebraska, USA
Distance from station: E 72mi, 116km
Updated: Tue, 23-Apr-2019 9:35am CDT
Overcast
Overcast
 Wind from N
Wind: N 13 mph , 20 km/h
Temperature: 50°F , 10°C
Wind Chill: 45°F , 7°C
Dew Point: 45°F , 7°C
Humidity: 82%
Barometer: 30.14 inHg , 1020.7 hPa
Clouds: Overcast
Visibility: 10 miles , 16 km
Cloud details: Overcast 1200 ft
2019/04/23 14:35 KAFK 231435Z AUTO 01011KT 10SM OVC012 10/07 A3014 RMK AO2 T00950065
KOFF - Offutt Afb/Belle, Nebraska, USA
Distance from station: ENE 75mi, 121km
Updated: Tue, 23-Apr-2019 8:58am CDT
Partly Cloudy
Partly Cloudy
 Wind from N
Wind: N 8 mph , 13 km/h
Temperature: 48°F , 9°C
Wind Chill: 44°F , 7°C
Dew Point: 39°F , 4°C
Humidity: 71%
Barometer: 30.16 inHg , 1021.3 hPa
Clouds: Partly Cloudy
Visibility: 10 miles , 16 km
Cloud details: Few Clouds 1000 ft
Partly Cloudy 20000 ft
2019/04/23 13:58 KOFF 231358Z 01007KT 340V040 10SM FEW010 SCT200 09/04 A3016 RMK AO2A SLP214 ALSTG/SLP ESTMD $
 
KBTA - Blair Muni, Nebraska, USA
Distance from station: NE 78mi, 125km
Updated: Tue, 23-Apr-2019 9:35am CDT
Clear
Clear
 Wind from N
Wind: N 13 mph , 20 km/h, Gust: 17 mph , 28 km/h
Temperature: 50°F , 10°C
Wind Chill: 45°F , 7°C
Dew Point: 41°F , 5°C
Humidity: 71%
Barometer: 30.15 inHg , 1021 hPa
Clouds: Clear
Visibility: 10 miles , 16 km
2019/04/23 14:35 KBTA 231435Z AUTO 01011G15KT 10SM CLR 10/05 A3015 RMK AO2 T00960051
KCNK - Concordia, Kansas, USA
Distance from station: SSW 80mi, 129km
Updated: Tue, 23-Apr-2019 8:55am CDT
Mostly Cloudy
Mostly Cloudy
 Wind from N
Wind: N 14 mph , 22 km/h
Temperature: 50°F , 10°C
Wind Chill: 45°F , 7°C
Dew Point: 45°F , 7°C
Humidity: 82%
Barometer: 30.13 inHg , 1020.3 hPa
Clouds: Mostly Cloudy
Visibility: 10 miles , 16 km
Cloud details: Mostly Cloudy 1300 ft
2019/04/23 13:55 KCNK 231355Z AUTO 36012KT 10SM BKN013 10/07 A3013 RMK AO2 SLP201 T01000067
 
KOMA - Omaha/Eppley, Nebraska, USA
Distance from station: NE 82mi, 133km
Updated: Tue, 23-Apr-2019 8:52am CDT
Mostly Cloudy
Mostly Cloudy
 Wind from N
Wind: N 13 mph , 20 km/h
Temperature: 48°F , 9°C
Wind Chill: 43°F , 6°C
Dew Point: 39°F , 4°C
Humidity: 71%
Barometer: 30.15 inHg , 1021 hPa
Clouds: Mostly Cloudy
Visibility: 10 miles , 16 km
Cloud details: Few Clouds 900 ft
Mostly Cloudy 25000 ft
2019/04/23 13:52 KOMA 231352Z 36011KT 10SM FEW009 BKN250 09/04 A3015 RMK AO2 SLP213 T00890044
KBVN - Albion Muni, Nebraska, USA
Distance from station: NNW 86mi, 138km
Updated: Tue, 23-Apr-2019 9:35am CDT
Clear
Clear
 Wind from NNW
Wind: NNW 6 mph , 9 km/h
Temperature: 52°F , 11°C
Dew Point: 41°F , 5°C
Humidity: 67%
Barometer: 30.18 inHg , 1022 hPa
Clouds: Clear
Visibility: 10 miles , 16 km
2019/04/23 14:35 KBVN 231435Z AUTO 34005KT 10SM CLR 11/05 A3018 RMK AO2 T01080048
 
KCBF - Council Bluffs, Iowa, USA
Distance from station: ENE 87mi, 139km
Updated: Tue, 23-Apr-2019 9:35am CDT
Clear
Clear
 Wind from N
Wind: N 13 mph , 20 km/h, Gust: 18 mph , 30 km/h
Temperature: 48°F , 9°C
Wind Chill: 43°F , 6°C
Dew Point: 46°F , 8°C
Humidity: 94%
Barometer: 30.14 inHg , 1020.7 hPa
Clouds: Clear
Visibility: 10 miles , 16 km
2019/04/23 14:35 KCBF 231435Z AUTO 36011G16KT 10SM CLR 09/08 A3014 RMK AO2
KOFK - Norfolk, Nebraska, USA
Distance from station: N 92mi, 148km
Updated: Tue, 23-Apr-2019 8:56am CDT
Clear
Clear
 Wind from NW
Wind: NW 3 mph , 6 km/h
Temperature: 46°F , 8°C
Dew Point: 43°F , 6°C
Humidity: 87%
Barometer: 30.17 inHg , 1021.7 hPa
Clouds: Clear
Visibility: 10 miles , 16 km
2019/04/23 13:56 KOFK 231356Z AUTO 31003KT 10SM CLR 08/06 A3017 RMK AO2 SLP220 T00830061

Metar display script from Saratoga-Weather.org